createdAt,value
2023-04-24T00:02:12.300Z,77.80
2023-04-24T00:10:20.482Z,77.00
2023-04-24T00:18:26.084Z,76.80
2023-04-24T00:26:34.216Z,77.60
2023-04-24T00:34:39.725Z,77.10
2023-04-24T00:42:48.258Z,76.30
2023-04-24T00:50:53.995Z,76.60
2023-04-24T00:59:02.747Z,75.60
2023-04-24T01:07:11.835Z,75.70
2023-04-24T01:15:22.863Z,75.80
2023-04-24T01:23:31.196Z,76.40
2023-04-24T01:31:37.193Z,75.80
2023-04-24T01:39:45.575Z,76.40
2023-04-24T01:47:51.710Z,77.60
2023-04-24T01:55:59.822Z,78.60
2023-04-24T02:04:05.422Z,79.50
2023-04-24T02:12:13.632Z,78.80
2023-04-24T02:20:19.086Z,78.90
2023-04-24T02:28:27.226Z,78.40
2023-04-24T02:36:32.863Z,78.50
2023-04-24T02:44:42.091Z,79.00
2023-04-24T02:52:47.680Z,79.50
2023-04-24T03:00:58.295Z,79.40
2023-04-24T03:09:04.753Z,78.90
2023-04-24T03:17:13.655Z,78.40
2023-04-24T03:25:19.246Z,78.60
2023-04-24T03:33:27.656Z,78.40
2023-04-24T03:41:38.974Z,77.50
2023-04-24T03:49:58.434Z,77.00
2023-04-24T03:58:04.004Z,76.70
2023-04-24T04:06:14.255Z,77.30
2023-04-24T04:14:20.353Z,77.60
2023-04-24T04:22:29.851Z,78.00
2023-04-24T04:30:39.514Z,77.70
2023-04-24T04:38:47.995Z,77.30
2023-04-24T04:47:06.720Z,76.50
2023-04-24T04:55:17.817Z,76.20
2023-04-24T05:03:42.218Z,75.20
2023-04-24T05:11:53.923Z,73.80
2023-04-24T05:20:01.915Z,74.10
2023-04-24T05:28:11.804Z,73.40
2023-04-24T05:36:17.847Z,72.50
2023-04-24T05:44:27.037Z,70.80
2023-04-24T05:52:32.522Z,69.90
2023-04-24T06:00:44.642Z,68.30
2023-04-24T06:08:51.249Z,68.00
2023-04-24T06:16:59.869Z,67.00
2023-04-24T06:25:14.453Z,64.40
2023-04-24T06:33:23.892Z,60.80
2023-04-24T06:41:29.695Z,59.10
2023-04-24T06:49:38.057Z,58.30
2023-04-24T06:57:43.893Z,58.10
2023-04-24T07:05:54.542Z,57.60
2023-04-24T07:14:00.166Z,57.00
2023-04-24T07:22:08.248Z,59.00
2023-04-24T07:30:15.095Z,59.90
2023-04-24T07:38:27.180Z,63.80
2023-04-24T07:46:34.320Z,66.80
2023-04-24T07:54:42.710Z,66.10
2023-04-24T08:02:48.465Z,65.80
2023-04-24T08:10:56.763Z,63.20
2023-04-24T08:19:04.034Z,62.60
2023-04-24T08:27:12.804Z,61.40
2023-04-24T08:35:18.320Z,58.10
2023-04-24T08:43:27.135Z,57.40
2023-04-24T08:51:35.095Z,56.60
2023-04-24T08:59:44.144Z,56.10
2023-04-24T09:07:53.533Z,56.30
2023-04-24T09:16:01.909Z,55.80
2023-04-24T09:24:09.812Z,55.30
2023-04-24T09:32:31.199Z,55.20
2023-04-24T09:40:41.098Z,55.50
2023-04-24T09:48:49.837Z,52.80
2023-04-24T09:56:56.417Z,51.60
2023-04-24T10:05:04.683Z,51.40
2023-04-24T10:13:11.786Z,51.10
2023-04-24T10:21:20.704Z,50.10
2023-04-24T11:30:05.006Z,42.00
2023-04-24T11:46:25.280Z,41.90
2023-04-24T11:54:31.156Z,43.40
2023-04-24T12:02:40.200Z,44.50
2023-04-24T12:10:46.225Z,42.00
2023-04-24T12:18:56.045Z,43.10
2023-04-24T12:27:02.811Z,46.50
2023-04-24T12:35:11.763Z,45.70
2023-04-24T12:43:19.559Z,43.50
2023-04-24T12:51:28.902Z,40.60
2023-04-24T12:59:34.321Z,37.60
2023-04-24T13:07:42.402Z,40.60
2023-04-24T13:15:47.816Z,43.80
2023-04-24T13:23:55.881Z,47.00
2023-04-24T13:32:01.476Z,48.50
2023-04-24T13:40:10.829Z,49.10
2023-04-24T13:48:16.670Z,50.50
2023-04-24T13:56:25.186Z,50.30
2023-04-24T14:04:30.742Z,52.80
2023-04-24T14:12:39.112Z,53.40
2023-04-24T14:20:44.625Z,54.80
2023-04-24T14:28:58.171Z,54.70
2023-04-24T14:37:13.688Z,54.20
2023-04-24T14:45:21.997Z,54.20
2023-04-24T14:53:27.397Z,53.60
2023-04-24T15:01:36.036Z,52.90
2023-04-24T15:09:41.469Z,50.70
2023-04-24T15:17:49.561Z,50.30
2023-04-24T15:25:55.432Z,50.50
2023-04-24T15:34:18.520Z,52.40
2023-04-24T15:42:25.155Z,52.70
2023-04-24T15:50:35.762Z,53.00
2023-04-24T15:58:41.554Z,54.40
2023-04-24T16:06:49.627Z,54.80
2023-04-24T16:14:55.116Z,56.80
2023-04-24T16:23:03.280Z,55.80
2023-04-24T16:31:13.581Z,54.80
2023-04-24T16:39:28.192Z,55.10
2023-04-24T16:47:33.915Z,55.10
2023-04-24T16:55:42.737Z,56.70
2023-04-24T17:03:50.737Z,58.50
2023-04-24T17:11:59.832Z,59.60
2023-04-24T17:20:20.727Z,60.20
2023-04-24T17:28:31.608Z,61.30
2023-04-24T17:36:38.750Z,61.30
2023-04-24T17:44:47.644Z,61.20
2023-04-24T17:52:53.596Z,62.20
2023-04-24T18:01:01.739Z,61.40
2023-04-24T18:09:07.367Z,61.60
2023-04-24T18:17:15.494Z,59.20
2023-04-24T18:25:27.090Z,59.40
2023-04-24T18:33:35.414Z,59.30
2023-04-24T18:41:41.036Z,59.00
2023-04-24T18:49:49.146Z,58.80
2023-04-24T18:57:54.886Z,59.90
2023-04-24T19:06:02.996Z,60.40
2023-04-24T19:14:08.852Z,61.10
2023-04-24T19:22:16.978Z,61.70
2023-04-24T19:30:22.493Z,60.90
2023-04-24T19:38:30.956Z,59.90
2023-04-24T19:46:36.583Z,60.40
2023-04-24T19:54:44.892Z,60.30
2023-04-24T20:02:50.514Z,60.20
2023-04-24T20:10:58.775Z,61.10
2023-04-24T20:19:04.260Z,60.80
2023-04-24T20:27:14.094Z,61.00
2023-04-24T20:35:19.643Z,61.60
2023-04-24T20:43:29.460Z,63.20
2023-04-24T20:51:35.784Z,65.40
2023-04-24T20:59:44.097Z,65.50
2023-04-24T21:07:54.212Z,66.20
2023-04-24T21:16:02.935Z,65.90
2023-04-24T21:24:09.111Z,66.30
2023-04-24T21:32:17.319Z,66.80
2023-04-24T21:40:23.305Z,67.90
2023-04-24T21:48:31.598Z,68.20
2023-04-24T21:56:37.183Z,69.00
2023-04-24T22:04:45.594Z,69.10
2023-04-24T22:12:51.441Z,70.60
2023-04-24T22:21:01.374Z,71.90
2023-04-24T22:29:07.077Z,73.40
2023-04-24T22:37:15.288Z,73.90
2023-04-24T22:45:23.876Z,74.50
2023-04-24T22:53:32.022Z,75.20
2023-04-24T23:01:37.477Z,77.20
2023-04-24T23:09:45.827Z,80.40
2023-04-24T23:17:51.500Z,80.30
2023-04-24T23:26:00.284Z,81.10
2023-04-24T23:34:05.820Z,81.40
2023-04-24T23:42:14.083Z,81.40
2023-04-24T23:50:19.777Z,82.40
2023-04-24T23:58:27.929Z,83.00
